Colts Neck, New Jersey
Current Conditions -  °F | °C
As of 7:55 PM on Saturday 25 Oct 2014 (Local Time) from KBLM Reporting Station
Clear Clear  
Wind Chill: 59°   Ceiling: Unl
Heat Index: 59°   Visibility: 10mi
Dew Point: 43°   Wind: 6mph
Humidity: 55%   Direction: 230°SW
Pressure: 29.67"   Gusts: NA
Location:  40.29°N, 74.17°W
Report Text: KBLM 252355Z AUTO 23005KT 10SM CLR 15/06 A2967 RMK AO1 10190 20150 401900060 57007
Loading
Personal Weather Stations






























Interactive Weather Map
Tropical Storm Tracking
New forecast layout! Learn more

10-Day Weather Forecast

Advertisements
Track Severe Weather on mobile